This is the latest recevied weather packets stored in our database for station/object OM8AGG-15. If no packets are shown the sender has not sent any weather packets the latest 1 day(s).
| Time | Temp. | Humidity | Pressure | Rain* | Wind** | Luminosity | Snow |
|---|---|---|---|---|---|---|---|
| 1778099532 | 17.22° C | 50% | 1010 hPa | - | - | - | - |
| 1778098632 | 17.22° C | 49% | 1009.9 hPa | - | - | - | - |
| 1778093231 | 18.89° C | 42% | 1009.6 hPa | - | - | - | - |
| 1778092331 | 19.44° C | 41% | 1009.6 hPa | - | - | - | - |
| 1778091431 | 19.44° C | 40% | 1009.6 hPa | - | - | - | - |
| 1778090531 | 20° C | 38% | 1009.4 hPa | - | - | - | - |
| 1778085130 | 21.67° C | 35% | 1009.3 hPa | - | - | - | - |
| 1778084230 | 22.22° C | 35% | 1009.3 hPa | - | - | - | - |
| 1778083330 | 22.22° C | 35% | 1009.4 hPa | - | - | - | - |
| 1778077929 | 22.22° C | 35% | 1009.9 hPa | - | - | - | - |
| 1778076129 | 22.78° C | 34% | 1009.9 hPa | - | - | - | - |
| 1778075229 | 22.78° C | 34% | 1010 hPa | - | - | - | - |
| 1778074329 | 22.78° C | 34% | 1009.8 hPa | - | - | - | - |
| 1778068028 | 22.78° C | 35% | 1010.5 hPa | - | - | - | - |
| 1778067128 | 21.67° C | 36% | 1010.5 hPa | - | - | - | - |
| 1778066228 | 22.22° C | 35% | 1010.5 hPa | - | - | - | - |
| 1778061727 | 21.11° C | 40% | 1011 hPa | - | - | - | - |
| 1778060827 | 20.56° C | 42% | 1011 hPa | - | - | - | - |
| 1778059927 | 20° C | 43% | 1011.3 hPa | - | - | - | - |
| 1778059027 | 20.56° C | 44% | 1011.3 hPa | - | - | - | - |
| 1778055426 | 18.89° C | 48% | 1011.1 hPa | - | - | - | - |
| 1778053626 | 17.78° C | 50% | 1011.1 hPa | - | - | - | - |
| 1778051826 | 17.78° C | 49% | 1011.1 hPa | - | - | - | - |
| 1778050926 | 16.67° C | 51% | 1011.1 hPa | - | - | - | - |
| 1778047325 | 15° C | 52% | 1010.8 hPa | - | - | - | - |
* Rain since midnight (hover to see other rain measurements)
** Current wind speed in m/s (hover to see current wind gust speed)